Latest Weather Observations for Edinburgh

IDS60901

Issued at 1:31 am CDT Wednesday 25 January 2017 (issued every 10 minutes, with the page automatically refreshed every 10 minutes)

About weather observations | Map of Adelaide area stations | Latest observations for Adelaide area | Other Formats
Station Details ID: 023083 Name: EDINBURGH RAAF Lat: -34.71 Lon: 138.62 Height: 16.54 m
Data from the previous 72 hours. | See also: Recent months at Edinburgh
Date/Time
CDT
Temp
°C
App
Temp
°C
Dew
Point
°C
Rel
Hum
%
Delta-T
°C
Wind Press
QNH
hPa
Press
MSL
hPa
Rain since
9am
mm
Dir  Spd
km/h
Gust
km/h
Spd
kts
Gust
kts
25/01:30am 13.1 12.5 9.0 76 2.1 SSW 2 7 1 4 1020.3 1020.2 0.0
25/01:00am 13.4 11.7 8.5 72 2.4 SSW 7 9 4 5 1020.5 1020.4 0.0
25/12:30am 14.4 12.9 8.6 68 2.9 SW 6 7 3 4 1020.5 1020.4 0.0
25/12:00am 15.7 13.6 8.2 61 3.8 SSE 9 17 5 9 1020.5 1020.4 0.0
 
Date/Time
CDT
Temp
°C
App
Temp
°C
Dew
Point
°C
Rel
Hum
%
Delta-T
°C
Wind Press
QNH
hPa
Press
MSL
hPa
Rain since
9am
mm
Dir  Spd
km/h
Gust
km/h
Spd
kts
Gust
kts
24/11:30pm 15.9 13.5 8.6 62 3.7 SSE 11 19 6 10 1020.7 1020.6 0.0
24/11:00pm 16.1 13.3 8.6 61 3.8 SSE 13 17 7 9 1020.9 1020.8 0.0
24/10:30pm 16.4 13.2 8.6 60 4.0 SSE 15 24 8 13 1020.9 1020.8 0.0
24/10:00pm 16.9 13.3 8.3 57 4.4 SSE 17 24 9 13 1020.8 1020.7 0.0
24/09:30pm 17.4 14.1 8.0 54 4.8 SSE 15 24 8 13 1020.5 1020.4 0.0
24/09:00pm 18.1 14.5 8.4 53 5.0 SE 17 24 9 13 1020.2 1020.1 0.0
24/08:30pm 18.9 15.0 8.8 52 5.3 SSE 19 24 10 13 1019.8 1019.7 0.0
24/08:00pm 20.0 16.2 9.0 49 5.8 SSE 19 26 10 14 1019.4 1019.3 0.0
24/07:30pm 21.0 17.0 8.9 46 6.4 SSE 20 28 11 15 1018.7 1018.6 0.0
24/07:00pm 22.2 18.5 9.4 44 6.9 SSE 19 32 10 17 1018.2 1018.1 0.0
24/06:30pm 22.9 19.3 10.0 44 7.0 SSE 19 30 10 16 1017.8 1017.7 0.0
24/06:00pm 23.3 19.5 9.7 42 7.4 SSE 20 28 11 15 1017.5 1017.4 0.0
24/05:30pm 23.6 19.9 9.6 41 7.6 SE 19 28 10 15 1017.3 1017.2 0.0
24/05:00pm 24.4 20.6 9.9 40 8.0 SSE 20 32 11 17 1017.1 1017.0 0.0
24/04:30pm 24.7 18.7 10.2 40 8.0 SW 32 46 17 25 1017.0 1016.9 0.0
24/04:00pm 23.7 17.8 12.4 49 6.5 SW 35 48 19 26 1017.0 1016.9 0.0
24/03:30pm 23.3 17.3 12.0 49 6.4 SW 35 46 19 25 1017.3 1017.2 0.0
24/03:00pm 23.1 17.0 11.8 49 6.4 SW 35 44 19 24 1017.2 1017.1 0.0
24/02:30pm 23.5 17.8 13.1 52 6.0 SW 35 43 19 23 1017.1 1017.0 0.0
24/02:00pm 23.9 20.0 12.2 48 6.7 SSW 24 35 13 19 1017.2 1017.1 0.0
24/01:30pm 23.8 22.1 12.4 48 6.5 SSE 13 26 7 14 1017.4 1017.3 0.0
24/01:00pm 23.1 21.5 11.5 48 6.5 S 11 22 6 12 1017.7 1017.6 0.0
24/12:30pm 22.5 19.0 10.3 46 6.7 SSW 19 24 10 13 1017.7 1017.6 0.0
24/12:00pm 22.4 19.5 12.4 53 5.7 SSW 19 28 10 15 1017.8 1017.7 0.0
24/11:30am 21.4 18.3 12.3 56 5.1 SSW 20 30 11 16 1017.7 1017.6 0.0
24/11:00am 21.2 18.6 12.1 56 5.1 S 17 28 9 15 1017.5 1017.4 0.0
24/10:30am 21.0 18.2 13.2 61 4.5 SSW 20 28 11 15 1017.3 1017.2 0.0
24/10:00am 20.8 17.8 12.0 57 4.9 SSW 19 26 10 14 1017.3 1017.2 0.0
24/09:30am 20.2 17.2 11.9 59 4.6 S 19 26 10 14 1017.3 1017.2 0.0
24/09:00am 19.5 17.2 11.8 61 4.3 S 15 22 8 12 1017.0 1016.9 3.4
24/08:30am 18.9 17.5 12.2 65 3.7 S 11 17 6 9 1016.7 1016.6 3.4
24/08:00am 18.4 16.2 12.2 67 3.4 S 15 24 8 13 1016.1 1016.0 3.4
24/07:30am 17.9 16.3 12.8 72 2.8 S 13 19 7 10 1015.6 1015.5 3.4
24/07:00am 17.5 15.5 12.8 74 2.6 S 15 24 8 13 1015.2 1015.1 3.4
24/06:30am 17.7 14.8 13.0 74 2.6 S 20 26 11 14 1014.7 1014.6 3.4
24/06:00am 18.5 16.0 14.0 75 2.6 SSW 20 30 11 16 1014.0 1013.9 3.4
24/05:30am 18.6 17.6 14.5 77 2.4 S 13 15 7 8 1013.3 1013.2 3.4
24/05:00am 18.7 18.2 14.8 78 2.3 SSE 11 19 6 10 1013.0 1012.9 3.4
24/04:30am 19.0 18.2 15.1 78 2.3 S 13 22 7 12 1012.6 1012.5 3.4
24/04:00am 19.1 18.2 14.8 76 2.5 S 13 20 7 11 1012.3 1012.2 3.4
24/03:30am 19.3 17.3 15.0 76 2.5 S 19 26 10 14 1011.9 1011.8 3.4
24/03:00am 19.1 16.3 15.4 79 2.2 SSW 24 33 13 18 1011.6 1011.5 3.4
24/02:30am 19.0 15.9 15.5 80 2.1 SSW 26 35 14 19 1011.2 1011.1 3.4
24/02:00am 19.4 16.5 16.1 81 2.0 SSW 26 33 14 18 1010.9 1010.8 3.4
24/01:54am 19.5 16.7 16.3 82 1.9 SSW 26 35 14 19 1010.8 1010.7 3.4
24/01:30am 20.2 18.0 17.8 86 1.5 SSW 26 33 14 18 1010.9 1010.8 3.4
24/01:08am 20.4 18.4 18.2 87 1.4 SW 26 33 14 18 1010.8 1010.7 3.4
24/01:00am 20.4 18.4 18.2 87 1.4 SW 26 35 14 19 1010.7 1010.6 3.4
24/12:30am 20.5 18.1 18.3 87 1.4 SW 28 35 15 19 1010.7 1010.6 3.4
24/12:27am 20.5 17.8 18.4 88 1.3 SW 30 37 16 20 1010.6 1010.5 3.4
24/12:12am 20.0 17.5 18.1 89 1.2 SW 28 39 15 21 1010.5 1010.4 3.2
24/12:00am 20.4 17.6 18.3 88 1.3 WSW 30 39 16 21 1010.2 1010.1 3.2
 
Date/Time
CDT
Temp
°C
App
Temp
°C
Dew
Point
°C
Rel
Hum
%
Delta-T
°C
Wind Press
QNH
hPa
Press
MSL
hPa
Rain since
9am
mm
Dir  Spd
km/h
Gust
km/h
Spd
kts
Gust
kts
23/11:55pm 20.3 17.2 18.4 89 1.2 SW 32 43 17 23 1010.1 1010.0 3.2
23/11:30pm 20.1 16.5 18.6 91 0.9 SW 35 48 19 26 1009.6 1009.5 3.2
23/11:27pm 20.1 16.1 18.6 91 0.9 SW 37 48 20 26 1009.6 1009.5 3.2
23/11:23pm 20.3 16.1 18.8 91 0.9 SW 39 50 21 27 1009.5 1009.4 3.2
23/11:00pm 21.8 19.6 20.4 92 0.9 WSW 32 41 17 22 1008.9 1008.8 3.2
23/10:40pm 22.5 22.9 21.0 91 1.0 W 20 26 11 14 1008.5 1008.5 2.8
23/10:30pm 22.4 21.9 20.7 90 1.1 W 24 32 13 17 1008.4 1008.4 2.6
23/10:00pm 23.1 24.5 21.0 88 1.4 WNW 15 24 8 13 1008.1 1008.1 2.6
23/09:57pm 23.2 25.4 21.1 88 1.4 WNW 11 22 6 12 1008.1 1008.1 2.6
23/09:30pm 23.2 26.1 21.1 88 1.4 WNW 7 9 4 5 1008.0 1008.0 2.6
23/09:00pm 23.2 26.1 21.1 88 1.4 NW 7 9 4 5 1007.7 1007.7 2.6
23/08:30pm 23.4 25.9 21.1 87 1.5 NW 9 11 5 6 1007.1 1007.1 2.6
23/08:00pm 23.7 26.7 21.2 86 1.6 W 7 11 4 6 1006.5 1006.5 2.6
23/07:30pm 23.8 25.9 20.9 84 1.9 N 11 17 6 9 1005.5 1005.5 2.6
23/07:00pm 23.9 25.3 21.0 84 1.9 N 15 19 8 10 1005.4 1005.4 2.6
23/06:30pm 24.2 26.2 21.5 85 1.8 NNE 13 17 7 9 1005.2 1005.2 2.6
23/06:00pm 23.9 26.3 20.8 83 2.0 NNE 9 13 5 7 1004.8 1004.8 2.6
23/05:30pm 24.1 27.1 20.8 82 2.2 SE 6 7 3 4 1004.9 1004.9 2.0
23/05:00pm 24.1 26.6 21.0 83 2.0 SSW 9 11 5 6 1005.5 1005.5 1.6
23/04:44pm 23.9 26.5 21.2 85 1.8 SSW 9 13 5 7 1005.6 1005.6 1.6
23/04:30pm 23.6 23.9 20.5 83 2.0 WSW 19 22 10 12 1006.5 1006.5 1.4
23/04:28pm 23.7 23.9 20.2 81 2.3 WSW 19 22 10 12 1006.5 1006.5 1.4
23/04:00pm 24.8 25.2 20.7 78 2.7 WSW 19 24 10 13 1006.0 1006.0 0.4
23/03:30pm 24.2 25.9 20.9 82 2.2 SW 13 17 7 9 1006.0 1006.0 0.4
23/03:00pm 25.6 27.2 20.8 75 3.2 SW 13 17 7 9 1005.7 1005.7 0.2
23/02:30pm 25.2 27.3 20.2 74 3.3 SSE 9 15 5 8 1005.0 1005.0 0.2
23/02:00pm 24.0 24.5 20.1 79 2.5 S 17 20 9 11 1005.3 1005.3 0.2
23/01:30pm 23.5 23.9 19.8 80 2.4 SSW 17 24 9 13 1006.2 1006.2 0.2
23/01:00pm 25.4 24.3 18.6 66 4.3 SW 22 28 12 15 1006.4 1006.4 0.0
23/12:30pm 26.8 26.0 17.0 55 6.1 S 17 20 9 11 1005.7 1005.7 0.0
23/12:00pm 26.3 24.7 18.4 61 5.0 SW 24 32 13 17 1006.3 1006.3 0.0
23/11:30am 26.1 23.6 17.2 58 5.6 WSW 26 35 14 19 1006.1 1006.1 0.0
23/11:00am 29.9 27.9 14.0 37 9.6 W 17 20 9 11 1005.3 1005.3 0.0
23/10:30am 31.3 30.1 11.7 30 11.5 NW 9 13 5 7 1004.5 1004.5 0.0
23/10:00am 31.4 28.7 10.2 27 12.1 N 15 20 8 11 1004.5 1004.5 0.0
23/09:30am 30.6 28.2 10.0 28 11.7 NNE 13 20 7 11 1004.5 1004.5 0.0
23/09:00am 30.4 27.3 10.4 29 11.4 NE 17 22 9 12 1004.3 1004.3 0.0
23/08:30am 28.9 25.6 9.6 30 10.8 NNE 17 20 9 11 1004.5 1004.5 0.0
23/08:00am 27.4 26.9 12.6 40 8.6 NNE 7 13 4 7 1004.5 1004.5 0.0
23/07:30am 24.7 23.8 12.6 47 7.0 NE 9 11 5 6 1004.1 1004.1 0.0
23/07:00am 22.7 22.9 12.9 54 5.6 NE 4 7 2 4 1004.1 1004.1 0.0
23/06:30am 22.5 22.4 13.3 56 5.3 NNE 6 7 3 4 1004.1 1004.1 0.0
23/06:00am 22.0 22.1 14.4 62 4.5 NNE 7 11 4 6 1004.0 1004.0 0.0
23/05:30am 22.6 23.1 15.0 62 4.5 NNW 6 7 3 4 1004.0 1004.0 0.0
23/05:00am 23.4 23.5 14.4 57 5.3 NW 7 11 4 6 1003.8 1003.8 0.0
23/04:30am 25.8 23.6 9.2 35 9.1 NE 11 17 6 9 1003.9 1003.9 0.0
23/04:00am 25.3 23.5 9.6 37 8.6 NE 9 11 5 6 1004.1 1004.1 0.0
23/03:30am 27.6 24.4 6.9 27 11.0 E 13 20 7 11 1004.3 1004.3 0.0
23/03:00am 27.4 23.9 7.3 28 10.8 E 15 19 8 10 1004.3 1004.3 0.0
23/02:30am 26.2 23.7 8.2 32 9.7 NE 11 15 6 8 1005.0 1005.0 0.0
23/02:00am 25.2 24.5 12.1 44 7.5 NE 7 13 4 7 1005.9 1005.9 0.0
23/01:30am 25.3 24.6 13.2 47 7.1 SSW 9 11 5 6 1006.4 1006.4 0.0
23/01:00am 26.8 25.5 11.3 38 8.8 ESE 9 13 5 7 1006.8 1006.8 0.0
23/12:30am 25.6 26.3 16.2 56 5.8 SE 7 9 4 5 1007.3 1007.3 0.0
23/12:00am 24.4 25.0 17.6 66 4.3 SW 11 13 6 7 1007.6 1007.6 0.0
 
Date/Time
CDT
Temp
°C
App
Temp
°C
Dew
Point
°C
Rel
Hum
%
Delta-T
°C
Wind Press
QNH
hPa
Press
MSL
hPa
Rain since
9am
mm
Dir  Spd
km/h
Gust
km/h
Spd
kts
Gust
kts
22/11:30pm 24.8 24.5 16.5 60 5.1 SW 13 15 7 8 1007.3 1007.3 0.0
22/11:00pm 24.3 24.6 16.0 60 5.0 W 9 13 5 7 1007.3 1007.3 0.0
22/10:30pm 27.4 27.2 13.0 41 8.5 E 6 11 3 6 1007.0 1007.0 0.0
22/10:00pm 27.1 26.3 8.0 30 10.3 SSE 2 7 1 4 1006.9 1006.9 0.0
22/09:30pm 28.0 26.2 7.8 28 10.9 S 7 11 4 6 1007.2 1007.2 0.0
22/09:00pm 28.3 26.3 8.6 29 10.8 S 9 15 5 8 1007.4 1007.4 0.0
22/08:30pm 28.8 24.8 6.8 25 11.7 S 17 22 9 12 1007.6 1007.6 0.0
22/08:00pm 28.8 24.8 9.0 29 10.9 SW 20 26 11 14 1007.8 1007.8 0.0
22/07:30pm 30.0 27.8 9.5 28 11.5 SSW 11 13 6 7 1007.7 1007.7 0.0
22/07:00pm 32.1 29.3 8.4 23 13.2 SW 13 17 7 9 1007.6 1007.6 0.0
22/06:30pm 30.9 26.8 8.0 24 12.6 SW 19 22 10 12 1007.6 1007.6 0.0
22/06:00pm 30.4 26.3 8.7 26 12.1 SW 20 26 11 14 1007.6 1007.6 0.0
22/05:30pm 30.6 26.0 9.5 27 11.9 SW 24 28 13 15 1007.7 1007.7 0.0
22/05:00pm 30.6 26.9 10.0 28 11.7 WSW 20 24 11 13 1007.9 1007.9 0.0
22/04:30pm 31.6 28.4 8.6 24 12.8 SW 15 20 8 11 1008.0 1008.0 0.0
22/04:00pm 31.2 28.2 10.5 28 11.9 SW 17 20 9 11 1008.4 1008.4 0.0
22/03:30pm 30.5 26.9 10.5 29 11.4 WSW 20 26 11 14 1008.8 1008.7 0.0
22/03:00pm 30.8 27.1 9.6 27 12.0 WSW 19 24 10 13 1009.0 1008.9 0.0
22/02:30pm 31.1 28.1 9.3 26 12.3 WSW 15 20 8 11 1009.1 1009.0 0.0
22/02:00pm 30.7 26.5 8.4 25 12.3 SW 20 28 11 15 1009.5 1009.4 0.0
22/01:30pm 30.9 27.7 8.6 25 12.4 WNW 15 26 8 14 1009.9 1009.8 0.0
22/01:00pm 31.2 27.3 7.0 22 13.1 N 17 22 9 12 1010.4 1010.3 0.0
22/12:30pm 31.1 28.9 9.3 26 12.3 N 11 17 6 9 1010.9 1010.8 0.0
22/12:00pm 30.4 27.0 9.3 27 11.8 N 17 22 9 12 1011.4 1011.3 0.0
22/11:30am 29.4 25.3 8.5 27 11.5 NNE 20 32 11 17 1011.9 1011.8 0.0
22/11:00am 28.5 24.4 8.7 29 10.9 NE 20 32 11 17 1012.2 1012.1 0.0
22/10:30am 27.6 23.0 8.0 29 10.6 NNE 22 32 12 17 1012.4 1012.3 0.0
22/10:00am 26.9 23.5 10.6 36 9.2 NNE 19 22 10 12 1012.7 1012.6 0.0
22/09:30am 25.9 22.7 10.1 37 8.8 NNE 17 22 9 12 1012.8 1012.7 0.0
22/09:00am 24.0 21.9 11.0 44 7.3 NNE 13 17 7 9 1012.9 1012.8 0.0
22/08:30am 21.5 20.2 12.4 56 5.1 NNE 11 13 6 7 1012.7 1012.6 0.0
22/08:00am 19.3 18.4 12.6 65 3.8 N 9 11 5 6 1012.8 1012.7 0.0
22/07:30am 17.1 16.2 12.6 75 2.5 N 9 13 5 7 1012.5 1012.4 0.0
22/07:00am 15.2 14.8 12.5 84 1.5 N 6 9 3 5 1012.2 1012.1 0.0
22/06:30am 14.9 13.0 11.9 82 1.6 NNW 13 15 7 8 1012.2 1012.1 0.0
22/06:00am 17.7 15.9 10.8 64 3.7 NE 11 13 6 7 1011.7 1011.6 0.0
22/05:30am 20.3 19.0 9.8 51 5.6 E 7 11 4 6 1011.6 1011.5 0.0
22/05:00am 20.6 18.2 10.1 51 5.7 ENE 13 20 7 11 1011.5 1011.4 0.0
22/04:30am 20.9 18.6 10.4 51 5.7 E 13 24 7 13 1011.2 1011.1 0.0
22/04:00am 20.0 18.3 11.2 57 4.8 ENE 11 15 6 8 1011.5 1011.4 0.0
22/03:30am 19.1 18.3 11.7 62 4.1 ENE 7 11 4 6 1011.6 1011.5 0.0
22/03:00am 19.9 18.7 11.7 59 4.5 E 9 13 5 7 1011.7 1011.6 0.0
22/02:30am 19.8 19.1 12.1 61 4.3 E 7 13 4 7 1012.0 1011.9 0.0
22/02:00am 19.9 18.0 11.9 60 4.4 ESE 13 17 7 9 1012.4 1012.3 0.0

Latest Capital City Observations: Canberra | Sydney | Melbourne | Brisbane | Adelaide | Perth | Hobart | Darwin

Other Formats:

Comma delimited format used in spreadsheet applications
http://www.bom.gov.au/fwo/IDS60901/IDS60901.95676.axf

JavaScript Object Notation format (JSON) in row-major order
http://www.bom.gov.au/fwo/IDS60901/IDS60901.95676.json